createdAt,value
2022-11-30T00:01:48.397Z,3.27
2022-11-30T00:04:16.931Z,3.30
2022-11-30T00:06:45.228Z,3.25
2022-11-30T00:09:15.194Z,2.95
2022-11-30T00:11:44.353Z,3.40
2022-11-30T00:14:13.466Z,2.88
2022-11-30T00:16:43.658Z,3.20
2022-11-30T00:19:12.053Z,3.60
2022-11-30T00:21:40.433Z,2.92
2022-11-30T00:24:09.572Z,3.28
2022-11-30T00:26:38.148Z,3.53
2022-11-30T00:29:07.055Z,3.63
2022-11-30T00:31:35.557Z,3.42
2022-11-30T00:34:05.355Z,3.17
2022-11-30T00:36:33.706Z,3.28
2022-11-30T00:39:02.242Z,7.32
2022-11-30T00:41:31.951Z,5.60
2022-11-30T00:44:01.434Z,4.30
2022-11-30T00:46:32.638Z,7.45
2022-11-30T00:49:01.249Z,3.23
2022-11-30T00:51:30.888Z,3.70
2022-11-30T00:54:00.049Z,3.80
2022-11-30T00:56:28.495Z,2.80
2022-11-30T00:58:56.840Z,3.70
2022-11-30T01:01:25.616Z,3.55
2022-11-30T01:03:54.587Z,3.35
2022-11-30T01:06:22.876Z,3.42
2022-11-30T01:08:52.847Z,3.20
2022-11-30T01:11:25.844Z,3.23
2022-11-30T01:13:55.570Z,3.35
2022-11-30T01:16:28.340Z,3.20
2022-11-30T01:18:57.220Z,3.17
2022-11-30T01:21:28.507Z,3.28
2022-11-30T01:23:58.376Z,3.45
2022-11-30T01:26:27.988Z,3.42
2022-11-30T01:28:57.322Z,3.03
2022-11-30T01:31:26.539Z,3.30
2022-11-30T01:33:57.153Z,3.20
2022-11-30T01:36:28.101Z,3.53
2022-11-30T01:38:59.183Z,3.25
2022-11-30T01:41:30.996Z,3.00
2022-11-30T01:44:50.732Z,3.03
2022-11-30T01:47:24.036Z,2.60
2022-11-30T01:49:59.951Z,3.42
2022-11-30T01:52:34.605Z,3.08
2022-11-30T01:55:15.082Z,3.05
2022-11-30T01:57:49.657Z,3.20
2022-11-30T02:00:19.821Z,3.38
2022-11-30T02:02:57.046Z,3.15
2022-11-30T02:05:27.496Z,3.17
2022-11-30T02:07:56.491Z,4.07
2022-11-30T02:10:30.439Z,4.25
2022-11-30T02:13:32.395Z,3.65
2022-11-30T02:16:09.019Z,4.65
2022-11-30T02:18:53.813Z,4.10
2022-11-30T02:21:31.951Z,3.88
2022-11-30T02:24:41.327Z,3.42
2022-11-30T02:27:26.636Z,4.28
2022-11-30T02:29:59.951Z,3.33
2022-11-30T02:32:33.636Z,4.25
2022-11-30T02:35:04.814Z,3.80
2022-11-30T02:37:35.610Z,4.07
2022-11-30T02:40:10.500Z,3.80
2022-11-30T02:42:38.977Z,3.72
2022-11-30T02:45:10.590Z,3.47
2022-11-30T02:47:47.504Z,3.90
2022-11-30T02:50:20.144Z,3.92
2022-11-30T02:52:50.126Z,3.33
2022-11-30T02:55:21.059Z,4.10
2022-11-30T02:57:49.374Z,3.50
2022-11-30T03:00:21.018Z,3.97
2022-11-30T03:02:49.962Z,3.97
2022-11-30T03:05:18.509Z,4.47
2022-11-30T03:07:46.900Z,3.92
2022-11-30T03:10:15.295Z,4.30
2022-11-30T03:12:43.747Z,3.97
2022-11-30T03:15:12.739Z,3.95
2022-11-30T03:17:42.522Z,4.50
2022-11-30T03:20:11.655Z,3.92
2022-11-30T03:22:39.954Z,4.53
2022-11-30T03:25:09.770Z,4.25
2022-11-30T03:27:38.020Z,4.40
2022-11-30T03:30:08.435Z,5.22
2022-11-30T03:32:36.717Z,4.72
2022-11-30T03:35:07.434Z,4.38
2022-11-30T03:37:35.824Z,4.72
2022-11-30T03:40:05.039Z,4.88
2022-11-30T03:42:33.345Z,4.82
2022-11-30T03:45:01.654Z,4.35
2022-11-30T03:47:29.943Z,4.85
2022-11-30T03:49:58.450Z,4.93
2022-11-30T03:52:28.459Z,5.32
2022-11-30T03:54:56.802Z,5.03
2022-11-30T03:57:25.131Z,4.70
2022-11-30T03:59:53.522Z,4.40
2022-11-30T04:02:21.813Z,5.65
2022-11-30T04:04:50.089Z,5.82
2022-11-30T04:07:18.440Z,5.97
2022-11-30T04:09:48.207Z,5.97
2022-11-30T04:12:16.603Z,6.00
2022-11-30T04:14:45.257Z,5.93
2022-11-30T04:17:13.741Z,7.35
2022-11-30T04:19:42.264Z,6.80
2022-11-30T04:22:10.554Z,7.60
2022-11-30T04:24:38.883Z,7.28
2022-11-30T04:27:08.519Z,7.10
2022-11-30T04:29:36.866Z,7.20
2022-11-30T04:32:05.160Z,6.97
2022-11-30T04:34:33.429Z,7.68
2022-11-30T04:37:01.843Z,7.45
2022-11-30T04:39:30.113Z,7.77
2022-11-30T04:41:59.452Z,8.10
2022-11-30T04:44:29.175Z,7.85
2022-11-30T04:46:57.562Z,8.15
2022-11-30T04:49:25.866Z,8.75
2022-11-30T04:51:54.274Z,8.35
2022-11-30T04:54:22.766Z,7.32
2022-11-30T04:56:51.117Z,8.02
2022-11-30T04:59:19.369Z,7.47
2022-11-30T05:01:49.048Z,7.88
2022-11-30T05:04:17.609Z,8.68
2022-11-30T05:06:45.941Z,8.65
2022-11-30T05:09:14.224Z,8.02
2022-11-30T05:11:42.532Z,7.93
2022-11-30T05:14:10.858Z,8.75
2022-11-30T05:16:39.209Z,8.05
2022-11-30T05:19:09.014Z,7.88
2022-11-30T05:21:41.281Z,8.63
2022-11-30T05:24:12.535Z,8.52
2022-11-30T05:26:40.919Z,8.05
2022-11-30T05:29:09.233Z,7.88
2022-11-30T05:31:41.072Z,8.30
2022-11-30T05:34:11.384Z,7.25
2022-11-30T05:36:41.786Z,7.82
2022-11-30T05:39:10.178Z,7.40
2022-11-30T05:41:38.715Z,6.80
2022-11-30T05:44:07.828Z,7.18
2022-11-30T05:46:40.794Z,8.45
2022-11-30T05:49:10.867Z,8.00
2022-11-30T05:51:41.520Z,7.07
2022-11-30T05:54:09.835Z,8.52
2022-11-30T05:56:38.134Z,8.18
2022-11-30T05:59:08.457Z,8.23
2022-11-30T06:01:36.929Z,8.05
2022-11-30T06:04:08.767Z,7.55
2022-11-30T06:06:38.901Z,8.23
2022-11-30T06:09:08.249Z,8.10
2022-11-30T06:11:36.936Z,7.63
2022-11-30T06:14:05.676Z,8.02
2022-11-30T06:16:34.519Z,8.30
2022-11-30T06:19:03.685Z,8.40
2022-11-30T06:21:32.020Z,8.70
2022-11-30T06:24:01.949Z,8.90
2022-11-30T06:26:30.716Z,9.73
2022-11-30T06:28:59.085Z,9.40
2022-11-30T06:31:27.477Z,8.87
2022-11-30T06:33:58.781Z,9.70
2022-11-30T06:36:31.294Z,9.50
2022-11-30T06:39:05.825Z,9.33
2022-11-30T06:41:34.129Z,9.57
2022-11-30T06:44:02.467Z,10.07
2022-11-30T06:46:30.839Z,10.20
2022-11-30T06:48:59.108Z,10.00
2022-11-30T06:51:27.575Z,10.07
2022-11-30T06:53:55.887Z,9.87
2022-11-30T06:56:25.638Z,9.83
2022-11-30T06:58:54.393Z,9.90
2022-11-30T07:01:22.732Z,9.23
2022-11-30T07:03:51.465Z,9.73
2022-11-30T07:06:19.968Z,9.30
2022-11-30T07:08:49.843Z,9.53
2022-11-30T07:11:18.162Z,9.30
2022-11-30T07:13:47.843Z,9.23
2022-11-30T07:16:16.415Z,8.97
2022-11-30T07:18:44.757Z,9.83
2022-11-30T07:21:13.065Z,9.17
2022-11-30T07:23:59.053Z,9.60
2022-11-30T07:26:27.412Z,11.03
2022-11-30T07:28:58.635Z,8.87
2022-11-30T07:31:29.927Z,9.57
2022-11-30T07:33:59.800Z,9.57
2022-11-30T07:36:30.317Z,9.60
2022-11-30T07:38:58.854Z,9.93
2022-11-30T07:41:27.688Z,8.90
2022-11-30T07:43:57.394Z,9.53
2022-11-30T07:46:25.744Z,8.83
2022-11-30T07:48:54.073Z,8.50
2022-11-30T07:51:23.690Z,9.03
2022-11-30T07:53:52.465Z,9.00
2022-11-30T07:56:22.090Z,9.30
2022-11-30T07:58:52.665Z,8.57
2022-11-30T08:01:26.003Z,8.33
2022-11-30T08:03:55.308Z,8.03
2022-11-30T08:06:26.055Z,7.63
2022-11-30T08:08:58.333Z,7.17
2022-11-30T08:11:29.121Z,7.80
2022-11-30T08:13:57.675Z,7.73
2022-11-30T08:16:30.828Z,8.10
2022-11-30T08:18:59.974Z,7.53
2022-11-30T08:21:28.251Z,8.30
2022-11-30T08:23:57.812Z,7.63
2022-11-30T08:26:29.024Z,6.13
2022-11-30T08:28:58.850Z,6.40
2022-11-30T08:31:30.899Z,5.53
2022-11-30T08:34:01.905Z,5.63
2022-11-30T08:36:31.745Z,4.88
2022-11-30T08:39:01.134Z,5.57
2022-11-30T08:41:29.669Z,4.90
2022-11-30T08:43:58.457Z,5.00
2022-11-30T08:47:00.757Z,4.60
2022-11-30T08:49:24.223Z,4.33
2022-11-30T08:57:34.665Z,4.00
2022-11-30T09:00:03.444Z,4.03
2022-11-30T09:02:33.240Z,3.65
2022-11-30T09:05:01.540Z,3.42
2022-11-30T09:07:30.014Z,3.77
2022-11-30T09:09:59.537Z,3.50
2022-11-30T09:12:27.915Z,3.78
2022-11-30T09:14:58.600Z,3.38
2022-11-30T09:17:27.525Z,3.10
2022-11-30T09:19:57.149Z,3.07
2022-11-30T09:22:25.531Z,3.38
2022-11-30T09:24:53.949Z,3.20
2022-11-30T09:27:22.408Z,3.45
2022-11-30T09:29:50.709Z,2.92
2022-11-30T09:32:19.043Z,3.10
2022-11-30T09:34:49.231Z,2.97
2022-11-30T09:37:20.270Z,3.00
2022-11-30T09:39:48.560Z,3.35
2022-11-30T09:42:30.445Z,3.20
2022-11-30T09:45:10.855Z,3.35
2022-11-30T09:48:18.144Z,3.70
2022-11-30T09:50:48.616Z,3.58
2022-11-30T09:53:29.383Z,4.10
2022-11-30T09:56:00.174Z,3.27
2022-11-30T09:58:39.756Z,3.80
2022-11-30T10:01:17.463Z,3.33
2022-11-30T10:03:47.380Z,3.63
2022-11-30T10:06:25.527Z,3.65
2022-11-30T10:09:16.552Z,3.55
2022-11-30T10:11:59.451Z,3.20
2022-11-30T10:15:18.618Z,3.00
2022-11-30T10:17:56.458Z,2.97
2022-11-30T10:20:43.670Z,3.70
2022-11-30T10:23:38.015Z,3.70
2022-11-30T10:26:12.959Z,3.53
2022-11-30T10:28:52.416Z,3.67
2022-11-30T10:31:22.748Z,4.03
2022-11-30T10:33:54.184Z,3.97
2022-11-30T10:36:30.746Z,4.28
2022-11-30T10:39:03.818Z,5.28
2022-11-30T10:41:40.967Z,4.50
2022-11-30T10:44:18.418Z,4.97
2022-11-30T10:46:57.881Z,4.95
2022-11-30T10:49:29.510Z,6.18
2022-11-30T10:52:04.709Z,6.50
2022-11-30T10:54:33.548Z,6.85
2022-11-30T10:57:05.632Z,6.78
2022-11-30T10:59:45.111Z,6.33
2022-11-30T11:02:36.529Z,7.53
2022-11-30T11:05:18.906Z,7.65
2022-11-30T11:07:53.007Z,7.47
2022-11-30T11:10:25.733Z,8.37
2022-11-30T11:12:59.355Z,7.88
2022-11-30T11:15:33.571Z,6.93
2022-11-30T11:18:24.099Z,6.03
2022-11-30T11:21:06.713Z,6.60
2022-11-30T11:23:38.836Z,6.57
2022-11-30T11:26:08.711Z,5.93
2022-11-30T11:28:45.350Z,5.40
2022-11-30T11:31:34.452Z,6.43
2022-11-30T11:34:03.253Z,5.80
2022-11-30T11:36:33.429Z,5.95
2022-11-30T11:39:03.531Z,6.70
2022-11-30T11:41:34.216Z,7.47
2022-11-30T11:44:21.314Z,6.37
2022-11-30T11:46:56.809Z,6.68
2022-11-30T11:49:28.520Z,6.87
2022-11-30T11:52:06.866Z,6.43
2022-11-30T11:54:41.237Z,6.43
2022-11-30T11:57:11.528Z,6.68
2022-11-30T11:59:50.828Z,5.73
2022-11-30T12:02:29.479Z,6.55
2022-11-30T12:05:00.788Z,6.90
2022-11-30T12:07:36.118Z,6.13
2022-11-30T12:10:51.187Z,6.30
2022-11-30T12:13:18.533Z,5.73
2022-11-30T12:16:05.812Z,6.47
2022-11-30T12:18:47.597Z,6.53
2022-11-30T12:21:22.188Z,6.50
2022-11-30T12:24:06.677Z,6.15
2022-11-30T12:26:42.479Z,6.27
2022-11-30T12:29:24.410Z,5.78
2022-11-30T12:32:10.001Z,6.47
2022-11-30T12:35:03.748Z,6.05
2022-11-30T12:37:45.803Z,6.77
2022-11-30T12:40:31.566Z,6.30
2022-11-30T12:43:14.004Z,6.10
2022-11-30T12:45:45.642Z,5.60
2022-11-30T12:48:32.659Z,5.50
2022-11-30T12:51:14.683Z,5.30
2022-11-30T12:53:54.678Z,5.63
2022-11-30T12:56:41.391Z,5.63
2022-11-30T12:59:29.409Z,5.40
2022-11-30T13:02:34.068Z,6.50
2022-11-30T13:05:09.048Z,5.33
2022-11-30T13:07:45.061Z,5.57
2022-11-30T13:10:26.592Z,5.73
2022-11-30T13:12:56.362Z,4.57
2022-11-30T13:15:28.572Z,5.85
2022-11-30T13:17:57.257Z,4.50
2022-11-30T13:20:35.070Z,4.60
2022-11-30T13:23:11.325Z,5.20
2022-11-30T13:28:54.588Z,4.60
2022-11-30T13:31:27.916Z,4.67
2022-11-30T13:34:00.807Z,4.80
2022-11-30T13:36:36.407Z,4.60
2022-11-30T13:39:30.425Z,4.67
2022-11-30T13:42:35.327Z,4.33
2022-11-30T13:45:30.523Z,4.43
2022-11-30T13:48:00.533Z,4.87
2022-11-30T13:50:38.189Z,4.57
2022-11-30T13:53:37.886Z,4.13
2022-11-30T13:56:36.087Z,4.70
2022-11-30T13:59:40.835Z,4.03
2022-11-30T14:03:15.760Z,4.50
2022-11-30T14:05:48.023Z,4.53
2022-11-30T14:08:42.267Z,5.17
2022-11-30T14:11:44.271Z,5.27
2022-11-30T14:14:48.671Z,4.73
2022-11-30T14:17:25.558Z,5.30
2022-11-30T14:19:58.276Z,5.10
2022-11-30T14:22:27.604Z,5.73
2022-11-30T14:24:58.013Z,5.17
2022-11-30T14:27:28.945Z,6.63
2022-11-30T14:30:04.978Z,6.47
2022-11-30T14:32:41.584Z,5.77
2022-11-30T14:35:15.091Z,6.77
2022-11-30T14:37:47.375Z,7.20
2022-11-30T14:40:21.728Z,6.03
2022-11-30T14:42:54.332Z,6.00
2022-11-30T14:45:26.654Z,6.97
2022-11-30T14:48:06.533Z,6.73
2022-11-30T14:50:36.373Z,6.90
2022-11-30T14:53:28.299Z,6.73
2022-11-30T14:56:05.692Z,6.60
2022-11-30T14:58:42.381Z,7.47
2022-11-30T15:01:22.711Z,7.77
2022-11-30T15:03:55.682Z,8.47
2022-11-30T15:06:34.994Z,6.93
2022-11-30T15:09:03.876Z,7.23
2022-11-30T15:11:33.585Z,6.77
2022-11-30T15:14:10.959Z,7.53
2022-11-30T15:16:39.929Z,8.00
2022-11-30T15:19:24.094Z,7.00
2022-11-30T15:21:53.950Z,6.97
2022-11-30T15:24:23.254Z,7.10
2022-11-30T15:26:59.114Z,7.07
2022-11-30T15:29:30.569Z,6.77
2022-11-30T15:32:01.640Z,7.53
2022-11-30T15:34:37.558Z,7.40
2022-11-30T15:37:06.607Z,7.47
2022-11-30T15:39:34.940Z,8.07
2022-11-30T15:42:06.548Z,6.40
2022-11-30T15:44:42.923Z,7.03
2022-11-30T15:47:27.362Z,7.10
2022-11-30T15:49:56.892Z,6.33
2022-11-30T15:52:29.010Z,7.43
2022-11-30T15:54:58.872Z,6.30
2022-11-30T15:57:59.089Z,6.50
2022-11-30T16:00:28.084Z,6.73
2022-11-30T16:03:09.458Z,6.20
2022-11-30T16:05:38.807Z,6.67
2022-11-30T16:08:16.583Z,6.80
2022-11-30T16:10:44.959Z,6.40
2022-11-30T16:13:17.314Z,6.53
2022-11-30T16:15:48.613Z,7.50
2022-11-30T16:18:20.189Z,6.47
2022-11-30T16:20:51.781Z,6.50
2022-11-30T16:23:21.047Z,7.10
2022-11-30T16:25:51.375Z,6.43
2022-11-30T16:28:22.451Z,6.80
2022-11-30T16:30:51.298Z,6.57
2022-11-30T16:33:21.971Z,7.00
2022-11-30T16:35:56.496Z,6.80
2022-11-30T16:38:25.928Z,7.03
2022-11-30T16:40:55.713Z,6.37
2022-11-30T16:43:26.774Z,6.87
2022-11-30T16:45:55.328Z,7.30
2022-11-30T16:48:23.772Z,7.30
2022-11-30T16:50:52.702Z,6.60
2022-11-30T16:53:22.854Z,7.17
2022-11-30T16:55:54.609Z,7.13
2022-11-30T16:58:24.529Z,7.17
2022-11-30T17:00:53.207Z,7.20
2022-11-30T17:03:27.712Z,6.50
2022-11-30T17:05:56.347Z,6.80
2022-11-30T17:08:25.178Z,6.60
2022-11-30T17:10:55.363Z,6.57
2022-11-30T17:13:25.310Z,6.93
2022-11-30T17:15:54.818Z,6.57
2022-11-30T17:18:23.300Z,7.37
2022-11-30T17:20:52.924Z,6.90
2022-11-30T17:23:21.661Z,6.83
2022-11-30T17:25:50.105Z,7.47
2022-11-30T17:28:18.678Z,6.87
2022-11-30T17:30:48.841Z,7.73
2022-11-30T17:33:17.433Z,7.03
2022-11-30T17:35:45.934Z,6.90
2022-11-30T17:38:14.368Z,6.70
2022-11-30T17:40:43.057Z,5.53
2022-11-30T17:43:11.560Z,6.33
2022-11-30T17:45:41.591Z,5.80
2022-11-30T17:48:11.890Z,5.37
2022-11-30T17:50:42.872Z,4.60
2022-11-30T17:53:17.952Z,4.60
2022-11-30T17:55:47.598Z,4.73
2022-11-30T17:58:16.202Z,4.70
2022-11-30T18:00:44.752Z,5.03
2022-11-30T18:03:14.860Z,5.57
2022-11-30T18:08:20.442Z,6.33
2022-11-30T18:10:48.660Z,5.63
2022-11-30T18:13:16.940Z,5.07
2022-11-30T18:15:45.388Z,4.57
2022-11-30T18:18:15.014Z,5.57
2022-11-30T18:20:43.273Z,5.33
2022-11-30T18:23:11.739Z,5.27
2022-11-30T18:25:43.530Z,5.67
2022-11-30T18:28:12.151Z,5.00
2022-11-30T18:30:40.839Z,4.93
2022-11-30T18:33:10.069Z,5.73
2022-11-30T18:35:39.743Z,5.03
2022-11-30T18:38:08.007Z,4.77
2022-11-30T18:40:36.823Z,5.17
2022-11-30T18:43:05.289Z,5.60
2022-11-30T18:45:34.670Z,5.17
2022-11-30T18:48:03.637Z,5.27
2022-11-30T18:50:33.745Z,5.57
2022-11-30T18:53:03.941Z,5.53
2022-11-30T18:55:32.210Z,5.47
2022-11-30T18:58:02.635Z,5.23
2022-11-30T19:00:31.527Z,5.03
2022-11-30T19:02:59.744Z,5.80
2022-11-30T19:05:35.059Z,5.37
2022-11-30T19:08:07.988Z,6.03
2022-11-30T19:10:37.632Z,6.23
2022-11-30T19:13:06.815Z,5.80
2022-11-30T19:15:39.521Z,6.90
2022-11-30T19:18:08.486Z,5.47
2022-11-30T19:20:40.154Z,6.13
2022-11-30T19:23:10.154Z,6.50
2022-11-30T19:25:38.442Z,5.13
2022-11-30T19:28:06.912Z,5.73
2022-11-30T19:30:35.237Z,6.03
2022-11-30T19:33:03.944Z,6.03
2022-11-30T19:35:34.376Z,6.47
2022-11-30T19:38:03.932Z,5.33
2022-11-30T19:40:42.628Z,5.60
2022-11-30T19:43:12.036Z,5.83
2022-11-30T19:45:50.666Z,6.50
2022-11-30T19:48:25.136Z,5.50
2022-11-30T19:50:55.468Z,6.57
2022-11-30T19:53:23.786Z,5.97
2022-11-30T19:55:53.987Z,6.40
2022-11-30T19:58:22.272Z,6.43
2022-11-30T20:00:51.122Z,6.47
2022-11-30T20:03:21.616Z,6.43
2022-11-30T20:05:50.776Z,6.97
2022-11-30T20:08:21.322Z,6.93
2022-11-30T20:10:52.322Z,5.77
2022-11-30T20:13:20.564Z,6.60
2022-11-30T20:15:51.060Z,6.73
2022-11-30T20:18:19.845Z,6.43
2022-11-30T20:20:49.195Z,6.53
2022-11-30T20:23:19.549Z,6.63
2022-11-30T20:25:59.356Z,7.13
2022-11-30T20:28:28.610Z,6.03
2022-11-30T20:31:09.471Z,6.77
2022-11-30T20:33:38.495Z,6.67
2022-11-30T20:36:11.936Z,7.53
2022-11-30T20:38:41.307Z,6.30
2022-11-30T20:41:15.556Z,7.50
2022-11-30T20:43:50.613Z,7.03
2022-11-30T20:46:34.091Z,8.03
2022-11-30T20:49:05.469Z,8.17
2022-11-30T20:51:52.935Z,13.07
2022-11-30T20:54:22.128Z,12.27
2022-11-30T20:56:54.174Z,8.17
2022-11-30T20:59:26.386Z,6.27
2022-11-30T21:01:56.589Z,7.10
2022-11-30T21:04:28.395Z,5.73
2022-11-30T21:06:57.777Z,6.27
2022-11-30T21:09:28.446Z,6.70
2022-11-30T21:11:58.148Z,7.47
2022-11-30T21:14:28.230Z,8.50
2022-11-30T21:16:57.781Z,7.30
2022-11-30T21:19:26.632Z,7.03
2022-11-30T21:22:00.359Z,10.07
2022-11-30T21:24:28.618Z,9.03
2022-11-30T21:27:04.599Z,7.77
2022-11-30T21:29:35.790Z,7.30
2022-11-30T21:32:05.776Z,7.20
2022-11-30T21:34:36.972Z,6.60
2022-11-30T21:37:17.541Z,7.77
2022-11-30T21:39:52.927Z,6.83
2022-11-30T21:42:23.635Z,8.50
2022-11-30T21:44:51.856Z,7.70
2022-11-30T21:47:23.051Z,6.73
2022-11-30T21:49:57.125Z,7.37
2022-11-30T21:52:33.307Z,6.80
2022-11-30T21:55:03.774Z,7.17
2022-11-30T21:57:42.401Z,7.20
2022-11-30T22:00:14.333Z,6.90
2022-11-30T22:02:43.117Z,7.10
2022-11-30T22:05:11.459Z,6.80
2022-11-30T22:07:39.697Z,7.27
2022-11-30T22:10:09.999Z,7.23
2022-11-30T22:12:38.192Z,8.00
2022-11-30T22:15:09.547Z,7.80
2022-11-30T22:17:37.762Z,7.63
2022-11-30T22:20:08.069Z,7.23
2022-11-30T22:22:36.374Z,6.80
2022-11-30T22:25:04.948Z,6.80
2022-11-30T22:27:33.212Z,6.57
2022-11-30T22:30:01.560Z,7.03
2022-11-30T22:32:31.157Z,6.60
2022-11-30T22:34:59.325Z,7.97
2022-11-30T22:37:27.613Z,6.87
2022-11-30T22:39:55.907Z,7.17
2022-11-30T22:42:24.084Z,7.43
2022-11-30T22:44:52.345Z,7.40
2022-11-30T22:47:20.558Z,7.17
2022-11-30T22:49:50.653Z,7.50
2022-11-30T22:52:32.084Z,7.67
2022-11-30T22:55:27.237Z,8.00
2022-11-30T22:57:55.719Z,7.63
2022-11-30T23:00:24.210Z,7.70
2022-11-30T23:02:52.625Z,7.57
2022-11-30T23:05:22.216Z,7.93
2022-11-30T23:07:50.429Z,7.70
2022-11-30T23:10:19.176Z,7.80
2022-11-30T23:13:02.315Z,8.00
2022-11-30T23:15:30.526Z,7.97
2022-11-30T23:17:58.715Z,7.93
2022-11-30T23:20:28.452Z,8.00
2022-11-30T23:22:56.812Z,9.10
2022-11-30T23:25:25.312Z,8.47
2022-11-30T23:27:53.685Z,7.80
2022-11-30T23:30:21.948Z,7.73
2022-11-30T23:32:50.179Z,8.70
2022-11-30T23:35:18.447Z,11.37
2022-11-30T23:37:48.230Z,10.60
2022-11-30T23:40:16.977Z,10.53
2022-11-30T23:42:45.367Z,9.03
2022-11-30T23:45:13.753Z,11.57
2022-11-30T23:47:41.962Z,11.63
2022-11-30T23:50:11.658Z,10.03
2022-11-30T23:52:39.898Z,10.90
2022-11-30T23:55:11.219Z,9.33
2022-11-30T23:57:39.422Z,8.20
